Time;durP1;ratioP1;P1;durP2;ratioP2;P2;SDS_P1;SDS_P2;PMS_P1;PMS_P2;Temp;Humidity;BMP_temperature;BMP_pressure;BME280_temperature;BME280_humidity;BME280_pressure;Samples;Min_cycle;Max_cycle;Signal;HPM_P1;HPM_P2
2022/07/12 00:00:56;;;;;;;22.50;21.30;;;;;;;21.03;100.00;102203.63;1939234;73;26679;-73
2022/07/12 00:03:26;;;;;;;22.90;21.57;;;;;;;21.16;100.00;102204.99;1968918;72;24196;-72
2022/07/12 00:05:57;;;;;;;23.37;22.13;;;;;;;21.16;100.00;102216.30;1934625;73;24171;-72
2022/07/12 00:08:28;;;;;;;24.80;23.50;;;;;;;20.99;100.00;102211.09;1937974;74;24117;-73
2022/07/12 00:10:58;;;;;;;25.80;24.40;;;;;;;21.00;100.00;102207.11;1937794;74;24674;-73
2022/07/12 00:13:30;;;;;;;26.87;25.27;;;;;;;20.87;100.00;102207.45;1937885;73;26763;-73
2022/07/12 00:16:01;;;;;;;29.87;28.17;;;;;;;20.63;100.00;102216.80;1937638;73;24172;-72
2022/07/12 00:18:31;;;;;;;30.77;28.97;;;;;;;20.45;100.00;102215.84;1937908;73;26688;-72
2022/07/12 00:21:02;;;;;;;31.40;29.60;;;;;;;20.29;100.00;102209.70;1933025;73;24219;-72
2022/07/12 00:23:32;;;;;;;32.77;30.77;;;;;;;20.16;100.00;102212.52;1941637;73;24231;-73
2022/07/12 00:26:04;;;;;;;35.03;32.83;;;;;;;20.06;100.00;102212.20;1934632;73;24611;-73
2022/07/12 00:28:34;;;;;;;35.40;33.40;;;;;;;20.16;100.00;102208.30;1934687;73;24173;-73
2022/07/12 00:31:05;;;;;;;35.73;33.63;;;;;;;20.10;100.00;102206.19;1937667;73;24174;-73
2022/07/12 00:33:35;;;;;;;36.80;34.47;;;;;;;20.10;100.00;102201.11;1932282;74;24149;-73
2022/07/12 00:36:08;;;;;;;37.03;34.93;;;;;;;20.09;100.00;102205.92;1893105;74;24688;-73
2022/07/12 00:38:39;;;;;;;37.30;35.20;;;;;;;20.08;100.00;102209.88;1894395;75;24620;-73
2022/07/12 00:41:09;;;;;;;37.50;35.30;;;;;;;20.13;100.00;102211.19;1908824;75;24662;-73
2022/07/12 00:43:39;;;;;;;36.67;34.67;;;;;;;20.35;100.00;102201.39;1896169;74;24710;-73
2022/07/12 00:49:25;;;;;;;35.43;33.43;;;;;;;20.56;100.00;102191.00;2006127;71;30886;-74
2022/07/12 00:55:12;;;;;;;36.77;34.67;;;;;;;20.29;100.00;102190.48;2016991;71;31018;-73
2022/07/12 01:00:59;;;;;;;37.57;35.47;;;;;;;20.43;100.00;102199.22;2011385;71;30943;-73
2022/07/12 01:06:43;;;;;;;37.53;35.33;;;;;;;20.59;100.00;102198.25;1995646;71;31033;-73
2022/07/12 01:12:28;;;;;;;39.23;36.90;;;;;;;20.71;100.00;102208.39;1999068;71;30871;-73
2022/07/12 01:18:14;;;;;;;38.53;36.40;;;;;;;20.84;100.00;102211.73;2007824;71;30977;-73
2022/07/12 01:24:01;;;;;;;38.47;36.30;;;;;;;20.56;100.00;102209.36;2006347;71;30909;-73
2022/07/12 01:29:45;;;;;;;39.90;37.60;;;;;;;20.32;100.00;102208.25;2006206;71;30965;-73
2022/07/12 01:35:31;;;;;;;43.83;41.23;;;;;;;20.08;100.00;102191.55;2015030;71;31060;-73
2022/07/12 01:41:17;;;;;;;44.70;42.20;;;;;;;20.06;100.00;102210.80;2016872;71;30906;-73
2022/07/12 01:47:01;;;;;;;42.70;40.40;;;;;;;20.19;100.00;102209.93;1999010;71;30858;-73
2022/07/12 01:52:46;;;;;;;42.30;39.90;;;;;;;20.05;100.00;102193.59;2000320;71;30928;-73
2022/07/12 01:58:31;;;;;;;46.20;43.50;;;;;;;19.68;100.00;102200.91;2012020;71;30832;-73
2022/07/12 02:04:17;;;;;;;46.17;43.47;;;;;;;19.90;100.00;102203.22;2009554;71;31589;-73
2022/07/12 02:10:01;;;;;;;44.50;41.93;;;;;;;19.80;100.00;102192.75;2009502;71;31011;-73
2022/07/12 02:15:46;;;;;;;44.13;41.53;;;;;;;19.85;100.00;102195.47;2011782;71;30841;-73
2022/07/12 02:21:31;;;;;;;45.33;42.70;;;;;;;19.79;100.00;102203.20;2006328;71;30886;-73
2022/07/12 02:27:15;;;;;;;44.37;41.90;;;;;;;19.86;100.00;102195.70;2007962;71;31498;-73
2022/07/12 02:33:00;;;;;;;47.73;44.97;;;;;;;19.40;100.00;102198.05;1979888;72;31066;-73
2022/07/12 02:38:44;;;;;;;48.10;45.27;;;;;;;19.17;100.00;102210.92;2017052;71;30973;-72
2022/07/12 02:44:29;;;;;;;47.83;45.03;;;;;;;19.30;100.00;102210.08;2016529;71;30967;-72
2022/07/12 02:50:13;;;;;;;47.73;44.87;;;;;;;19.49;100.00;102203.25;2016848;71;30903;-73
2022/07/12 02:55:57;;;;;;;48.47;45.67;;;;;;;19.41;100.00;102199.73;2014968;71;30921;-74
2022/07/12 03:01:41;;;;;;;46.97;44.17;;;;;;;19.65;100.00;102192.48;2011350;71;30908;-72
2022/07/12 03:07:28;;;;;;;47.93;45.13;;;;;;;19.48;100.00;102198.76;2006358;71;30861;-73
2022/07/12 03:13:12;;;;;;;49.17;46.33;;;;;;;19.23;100.00;102194.16;2008371;71;30883;-74
2022/07/12 03:18:57;;;;;;;50.40;47.40;;;;;;;19.04;100.00;102190.00;2002788;71;30866;-73
2022/07/12 03:24:41;;;;;;;51.20;48.20;;;;;;;19.09;100.00;102189.34;2002843;71;31369;-72
2022/07/12 03:30:27;;;;;;;51.23;48.07;;;;;;;19.14;100.00;102184.76;2009797;71;31484;-73
2022/07/12 03:36:13;;;;;;;49.90;46.90;;;;;;;19.37;100.00;102191.63;2000981;71;31456;-72
2022/07/12 03:41:57;;;;;;;49.10;46.13;;;;;;;19.44;100.00;102182.78;2000191;71;31432;-71
2022/07/12 03:47:42;;;;;;;49.20;46.20;;;;;;;19.47;100.00;102183.56;1998739;71;30940;-71
2022/07/12 03:53:27;;;;;;;50.63;47.53;;;;;;;19.37;100.00;102181.77;2015291;71;31018;-71
2022/07/12 03:59:12;;;;;;;48.57;45.57;;;;;;;19.33;100.00;102180.73;2008432;71;30883;-72
2022/07/12 04:04:56;;;;;;;49.57;46.43;;;;;;;19.42;100.00;102167.58;2002841;71;30941;-72
2022/07/12 04:10:43;;;;;;;49.30;46.27;;;;;;;19.30;100.00;102165.83;2004567;71;31488;-72
2022/07/12 04:16:27;;;;;;;51.37;48.27;;;;;;;19.20;100.00;102176.48;1997385;71;30964;-72
2022/07/12 04:22:12;;;;;;;51.30;48.07;;;;;;;19.29;100.00;102178.84;1997071;71;30879;-72
2022/07/12 04:27:56;;;;;;;52.07;48.80;;;;;;;18.99;100.00;102176.03;2015086;71;31004;-72
2022/07/12 04:33:40;;;;;;;50.70;47.60;;;;;;;19.00;100.00;102186.13;2006419;71;30873;-72
2022/07/12 04:39:25;;;;;;;50.63;47.53;;;;;;;18.71;100.00;102180.74;1997227;71;30998;-72
2022/07/12 04:45:10;;;;;;;50.80;47.70;;;;;;;18.96;100.00;102192.13;2018772;71;31583;-72
2022/07/12 04:50:55;;;;;;;50.43;47.23;;;;;;;19.14;100.00;102195.45;2009774;71;30894;-72
2022/07/12 04:56:39;;;;;;;49.93;46.83;;;;;;;19.11;100.00;102207.35;2004332;71;31156;-71
2022/07/12 05:02:23;;;;;;;50.17;47.00;;;;;;;19.29;100.00;102203.63;2017162;71;33331;-72
2022/07/12 05:08:07;;;;;;;51.50;48.30;;;;;;;19.31;100.00;102203.30;2009660;71;31022;-72
2022/07/12 05:13:52;;;;;;;49.80;46.63;;;;;;;19.20;100.00;102210.29;2006515;71;30913;-73
2022/07/12 05:19:38;;;;;;;50.57;47.27;;;;;;;19.14;100.00;102215.17;1995009;71;30961;-72
2022/07/12 05:25:25;;;;;;;52.47;49.27;;;;;;;19.43;100.00;102210.70;2012146;71;30847;-72
2022/07/12 05:31:11;;;;;;;50.47;47.10;;;;;;;19.55;100.00;102214.67;2000239;71;31065;-72
2022/07/12 05:36:56;;;;;;;47.70;44.43;;;;;;;19.75;100.00;102212.02;2007995;71;30948;-72
2022/07/12 05:42:40;;;;;;;47.87;44.77;;;;;;;20.03;100.00;102207.73;2000803;71;30831;-72
2022/07/12 05:48:26;;;;;;;51.00;47.70;;;;;;;20.33;100.00;102213.56;2017012;70;31055;-71
2022/07/12 05:54:11;;;;;;;51.13;47.70;;;;;;;20.55;100.00;102202.03;1991963;71;31299;-71
2022/07/12 05:59:56;;;;;;;51.60;48.33;;;;;;;20.93;100.00;102199.65;1991847;71;30923;-71
2022/07/12 06:05:41;;;;;;;50.03;46.83;;;;;;;21.06;100.00;102204.39;2004365;71;30925;-72
2022/07/12 06:11:25;;;;;;;48.40;45.40;;;;;;;21.35;100.00;102206.98;2000398;71;30959;-72
2022/07/12 06:17:09;;;;;;;46.43;43.43;;;;;;;21.63;100.00;102211.87;2000424;71;30902;-74
2022/07/12 06:22:54;;;;;;;45.67;42.57;;;;;;;21.69;100.00;102217.61;2010198;71;30912;-78
2022/07/12 06:28:39;;;;;;;45.97;42.77;;;;;;;22.00;100.00;102217.57;1997410;71;30926;-78
2022/07/12 06:34:23;;;;;;;43.87;40.73;;;;;;;22.05;100.00;102211.77;2015561;71;30920;-77
2022/07/12 06:40:11;;;;;;;41.00;38.40;;;;;;;22.27;100.00;102215.63;2011431;71;31007;-77
2022/07/12 06:45:56;;;;;;;38.47;36.17;;;;;;;22.48;100.00;102216.63;2011503;71;30998;-78
2022/07/12 06:51:41;;;;;;;36.50;34.20;;;;;;;22.64;100.00;102210.71;2008017;70;30881;-75
2022/07/12 06:57:26;;;;;;;36.42;34.00;;;;;;;22.87;100.00;102214.23;1999466;71;30920;-74
2022/07/12 07:03:11;;;;;;;35.48;33.28;;;;;;;23.10;100.00;102206.58;1998953;71;30930;-75
2022/07/12 07:08:55;;;;;;;33.33;31.13;;;;;;;23.25;100.00;102193.88;1995442;71;30892;-77
2022/07/12 07:14:40;;;;;;;34.18;31.95;;;;;;;22.97;100.00;102196.30;2015411;71;30917;-79
2022/07/12 07:20:25;;;;;;;31.15;29.10;;;;;;;23.04;100.00;102193.78;2015145;71;31005;-71
2022/07/12 07:26:09;;;;;;;30.27;28.57;;;;;;;23.36;100.00;102180.17;2017113;71;31466;-77
2022/07/12 07:31:53;;;;;;;30.00;27.37;;;;;;;23.76;100.00;102161.63;1991965;71;30801;-78
2022/07/12 07:37:38;;;;;;;26.30;24.67;;;;;;;24.06;100.00;102162.43;2006539;71;30813;-74
2022/07/12 07:43:25;;;;;;;24.87;23.35;;;;;;;24.10;100.00;102193.80;2001019;71;30935;-77
2022/07/12 07:49:09;;;;;;;23.65;22.27;;;;;;;24.23;100.00;102219.13;2006331;71;31468;-74
2022/07/12 07:54:53;;;;;;;22.95;21.85;;;;;;;24.34;100.00;102230.34;2018823;71;31445;-77
2022/07/12 08:00:38;;;;;;;23.45;22.05;;;;;;;24.44;100.00;102247.55;1999181;71;30828;-77
2022/07/12 08:06:22;;;;;;;23.67;22.20;;;;;;;24.61;100.00;102244.56;2000706;71;30989;-74
2022/07/12 08:12:08;;;;;;;21.68;20.48;;;;;;;24.70;100.00;102251.59;2004327;71;30995;-75
2022/07/12 08:17:53;;;;;;;20.72;19.62;;;;;;;24.66;100.00;102246.37;2008652;71;31445;-75
2022/07/12 08:23:38;;;;;;;21.70;20.45;;;;;;;24.62;100.00;102239.72;2000611;71;30895;-75
2022/07/12 08:29:23;;;;;;;20.55;19.52;;;;;;;24.63;100.00;102232.28;2008131;71;31003;-74
2022/07/12 08:35:09;;;;;;;19.40;18.32;;;;;;;24.76;100.00;102217.53;1991885;71;30856;-75
2022/07/12 08:40:53;;;;;;;17.95;16.87;;;;;;;25.03;100.00;102212.67;2013478;71;30972;-75
2022/07/12 08:46:37;;;;;;;16.40;15.60;;;;;;;25.15;100.00;102223.28;2017352;71;31590;-74
2022/07/12 08:52:31;;;;;;;14.83;13.75;;;;;;;25.44;100.00;102239.34;2015442;71;31000;-77
2022/07/12 08:58:19;;;;;;;14.18;13.43;;;;;;;25.74;100.00;102223.76;2010008;71;30926;-77
2022/07/12 09:04:16;;;;;;;14.25;13.32;;;;;;;25.66;100.00;102211.89;1998916;71;30887;-74
2022/07/12 09:10:05;;;;;;;13.35;12.75;;;;;;;25.68;100.00;102218.88;1999042;71;30950;-75
2022/07/12 09:15:50;;;;;;;13.18;12.20;;;;;;;25.76;100.00;102221.38;2009459;70;30876;-76
2022/07/12 09:21:36;;;;;;;13.20;12.37;;;;;;;25.35;100.00;102230.91;2017065;71;30893;-75
2022/07/12 09:27:28;;;;;;;13.15;12.25;;;;;;;25.56;100.00;102223.73;2017108;71;30907;-77
2022/07/12 09:39:17;;;;;;;13.25;12.28;;;;;;;25.72;100.00;102227.54;2013259;71;30913;-84
2022/07/12 09:45:03;;;;;;;12.37;11.53;;;;;;;25.72;100.00;102213.30;1997375;71;31516;-75
2022/07/12 09:50:51;;;;;;;12.20;11.40;;;;;;;25.86;100.00;102217.23;2009780;71;30814;-77
2022/07/12 09:56:39;;;;;;;11.63;11.03;;;;;;;26.12;100.00;102215.67;2010249;71;30843;-77
2022/07/12 10:02:26;;;;;;;12.53;11.73;;;;;;;26.49;100.00;102205.63;2018713;71;30879;-77
2022/07/12 10:08:11;;;;;;;11.95;11.25;;;;;;;26.68;100.00;102202.97;2008268;71;31324;-77
2022/07/12 10:14:01;;;;;;;11.80;11.20;;;;;;;26.51;100.00;102198.98;2016638;71;30875;-76
2022/07/12 10:19:46;;;;;;;11.80;11.10;;;;;;;27.08;100.00;102198.66;2010059;71;30931;-76
2022/07/12 10:25:37;;;;;;;11.40;10.75;;;;;;;26.92;100.00;102200.63;1965095;72;31022;-77
2022/07/12 10:31:20;;;;;;;11.03;10.53;;;;;;;26.81;100.00;102201.72;2013150;71;31355;-76
2022/07/12 10:37:11;;;;;;;11.90;11.10;;;;;;;26.46;100.00;102206.36;2000246;71;31049;-75
2022/07/12 10:43:21;;;;;;;11.60;11.00;;;;;;;26.38;100.00;102198.79;2017238;71;32455;-75
2022/07/12 10:49:27;;;;;;;10.95;10.48;;;;;;;26.26;100.00;102193.37;2002741;71;30807;-74
2022/07/12 10:55:39;;;;;;;11.43;10.70;;;;;;;26.56;100.00;102187.34;2016853;71;31938;-76
2022/07/12 11:01:25;;;;;;;11.30;10.70;;;;;;;27.24;100.00;102178.69;2017147;71;31379;-75
2022/07/12 11:07:11;;;;;;;11.57;10.85;;;;;;;27.30;100.00;102156.64;2017393;71;30954;-74
2022/07/12 11:12:57;;;;;;;10.82;10.23;;;;;;;27.13;100.00;102158.42;2016731;71;30889;-75
2022/07/12 11:18:42;;;;;;;11.40;10.70;;;;;;;27.35;100.00;102152.09;2011579;71;30996;-73
2022/07/12 11:24:28;;;;;;;15.18;14.07;;;;;;;26.94;100.00;102153.45;2012015;71;31332;-76
2022/07/12 11:30:14;;;;;;;11.90;11.30;;;;;;;26.72;100.00;102157.69;1991683;71;33295;-75
2022/07/12 11:35:59;;;;;;;17.57;16.05;;;;;;;26.71;100.00;102152.34;2002627;71;31492;-76
2022/07/12 11:41:57;;;;;;;13.93;12.98;;;;;;;27.33;100.00;102148.79;1998862;71;32401;-74
2022/07/12 11:48:01;;;;;;;11.83;11.12;;;;;;;26.67;100.00;102142.27;2000874;71;31875;-76
2022/07/12 11:53:49;;;;;;;13.75;12.85;;;;;;;26.86;100.00;102138.77;1999179;71;30896;-77
2022/07/12 11:59:33;;;;;;;11.08;10.38;;;;;;;26.58;100.00;102133.62;2007675;71;31857;-73
2022/07/12 12:05:23;;;;;;;11.10;10.58;;;;;;;27.94;100.00;102119.72;1995664;71;30831;-77
2022/07/12 12:11:07;;;;;;;10.25;9.83;;;;;;;27.89;100.00;102130.84;1995474;71;30973;-74
2022/07/12 12:16:52;;;;;;;10.75;10.25;;;;;;;27.41;100.00;102126.37;2009684;71;31075;-74
2022/07/12 12:22:37;;;;;;;10.38;9.58;;;;;;;28.23;100.00;102128.36;2017029;71;30924;-73
2022/07/12 12:28:23;;;;;;;9.98;9.58;;;;;;;28.25;100.00;102121.05;2016869;71;31022;-73
2022/07/12 12:34:13;;;;;;;18.27;11.05;;;;;;;28.36;100.00;102128.44;2000678;71;30816;-75
2022/07/12 12:39:58;;;;;;;11.38;10.35;;;;;;;28.35;100.00;102114.74;2008461;71;30989;-73
2022/07/12 12:45:55;;;;;;;10.25;9.60;;;;;;;27.58;100.00;102102.34;2002617;71;30921;-73
2022/07/12 12:51:58;;;;;;;10.18;9.78;;;;;;;27.50;100.00;102099.92;2000508;71;30960;-76
2022/07/12 12:57:49;;;;;;;10.13;9.73;;;;;;;27.70;100.00;102105.08;2016969;71;31839;-76
2022/07/12 13:03:36;;;;;;;11.33;10.82;;;;;;;27.58;100.00;102105.20;2013781;71;31813;-76
2022/07/12 13:09:22;;;;;;;10.82;10.23;;;;;;;27.96;100.00;102105.28;2013244;71;30883;-76
2022/07/12 13:15:08;;;;;;;11.12;10.43;;;;;;;27.82;100.00;102089.24;2013465;71;30937;-73
2022/07/12 13:20:52;;;;;;;9.90;9.55;;;;;;;27.71;100.00;102077.35;2009981;71;31060;-74
2022/07/12 13:26:38;;;;;;;10.18;9.58;;;;;;;27.52;100.00;102074.67;2000957;71;30898;-74
2022/07/12 13:32:24;;;;;;;11.20;10.40;;;;;;;28.82;100.00;102063.01;2004756;71;31406;-75
2022/07/12 13:38:11;;;;;;;10.80;10.28;;;;;;;28.55;100.00;102073.27;1991809;71;30802;-72
2022/07/12 13:43:55;;;;;;;11.03;10.38;;;;;;;28.05;100.00;102073.05;2010257;71;30832;-71
2022/07/12 13:49:40;;;;;;;11.22;10.65;;;;;;;28.21;100.00;102083.59;2016682;71;32426;-70
2022/07/12 13:55:31;;;;;;;10.08;9.58;;;;;;;28.12;100.00;102084.41;2004596;71;30886;-70
2022/07/12 14:01:15;;;;;;;10.53;9.93;;;;;;;27.86;100.00;102079.32;2000752;71;30912;-69
2022/07/12 14:07:01;;;;;;;10.88;10.38;;;;;;;28.05;100.00;102081.61;2016765;71;30884;-70
2022/07/12 14:12:46;;;;;;;10.35;9.65;;;;;;;27.69;100.00;102073.43;1991656;71;31379;-69
2022/07/12 14:18:31;;;;;;;9.83;9.50;;;;;;;27.97;100.00;102079.81;2005812;71;30872;-70
2022/07/12 14:24:15;;;;;;;9.15;8.65;;;;;;;27.79;100.00;102069.17;2011213;71;30868;-69
2022/07/12 14:30:00;;;;;;;12.18;11.43;;;;;;;28.12;100.00;102074.41;2006383;71;31483;-67
2022/07/12 14:35:43;;;;;;;11.48;10.38;;;;;;;27.89;100.00;102065.74;2011278;71;31475;-67
2022/07/12 14:41:28;;;;;;;10.53;9.88;;;;;;;28.18;100.00;102055.18;2016935;71;30998;-71
2022/07/12 14:47:13;;;;;;;10.90;10.30;;;;;;;28.43;100.00;102054.25;2009557;71;30885;-66
2022/07/12 14:52:58;;;;;;;11.60;10.88;;;;;;;28.46;100.00;102054.31;2015010;71;30888;-68
2022/07/12 14:58:42;;;;;;;10.88;10.10;;;;;;;28.10;100.00;102048.27;2011887;71;30835;-67
2022/07/12 15:04:27;;;;;;;11.78;10.88;;;;;;;28.26;100.00;102056.15;1997211;70;30806;-70
2022/07/12 15:10:12;;;;;;;11.57;10.80;;;;;;;28.53;100.00;102051.39;2008061;71;30887;-69
2022/07/12 15:15:56;;;;;;;10.70;10.23;;;;;;;28.61;100.00;102053.17;2004733;71;31385;-70
2022/07/12 15:21:41;;;;;;;10.88;10.18;;;;;;;28.20;100.00;102047.64;2016745;71;31015;-70
2022/07/12 15:27:27;;;;;;;11.40;10.90;;;;;;;28.30;100.00;102039.30;2011372;71;30884;-70
2022/07/12 15:33:12;;;;;;;11.80;11.05;;;;;;;28.62;100.00;102034.81;1961632;72;31491;-71
2022/07/12 15:38:57;;;;;;;10.30;9.80;;;;;;;28.04;100.00;102024.24;2013424;71;30888;-72
2022/07/12 15:44:42;;;;;;;10.80;10.10;;;;;;;28.53;100.00;102026.48;1994947;71;30930;-72
2022/07/12 15:50:27;;;;;;;10.40;9.90;;;;;;;28.82;100.00;102023.56;2002783;71;31418;-73
2022/07/12 15:56:12;;;;;;;10.70;10.03;;;;;;;28.54;100.00;102018.10;2003984;71;31841;-70
2022/07/12 16:01:57;;;;;;;10.60;10.10;;;;;;;28.36;100.00;102016.36;2013758;71;30808;-73
2022/07/12 16:07:43;;;;;;;11.18;10.48;;;;;;;28.44;100.00;102020.18;2018715;71;30961;-72
2022/07/12 16:13:32;;;;;;;11.70;11.00;;;;;;;28.43;100.00;102012.80;2016961;71;31519;-73
2022/07/12 16:19:14;;;;;;;11.85;11.05;;;;;;;28.54;100.00;102010.95;2009540;71;30914;-70
2022/07/12 16:24:58;;;;;;;14.03;13.13;;;;;;;28.28;100.00;102010.25;2011806;71;31443;-72
2022/07/12 16:30:42;;;;;;;18.80;17.10;;;;;;;28.18;100.00;102006.60;2016801;71;31914;-73
2022/07/12 16:36:28;;;;;;;11.73;11.10;;;;;;;28.39;100.00;102011.91;2009835;71;31485;-72
2022/07/12 16:42:12;;;;;;;11.80;11.08;;;;;;;28.58;100.00;102007.59;2013358;71;31981;-72
2022/07/12 16:47:57;;;;;;;11.20;10.70;;;;;;;28.40;100.00;102015.00;1999044;71;30876;-73
2022/07/12 16:53:45;;;;;;;12.03;11.43;;;;;;;28.64;100.00;102011.77;2005993;71;31443;-73
2022/07/12 16:59:30;;;;;;;11.60;10.82;;;;;;;28.71;100.00;102008.27;2004730;70;30973;-73
2022/07/12 17:05:15;;;;;;;11.00;10.40;;;;;;;28.42;100.00;102016.26;2015253;71;30863;-73
2022/07/12 17:10:59;;;;;;;10.82;10.23;;;;;;;28.47;100.00;102010.84;2015072;71;30939;-76
2022/07/12 17:16:43;;;;;;;11.22;10.63;;;;;;;28.12;100.00;102015.84;2006061;71;30892;-76
2022/07/12 17:22:28;;;;;;;11.35;10.85;;;;;;;28.44;100.00;102004.45;2016789;71;30894;-76
2022/07/12 17:28:12;;;;;;;10.60;10.10;;;;;;;28.41;100.00;102002.36;2002597;71;31868;-76
2022/07/12 17:33:59;;;;;;;11.40;10.70;;;;;;;28.33;100.00;102007.70;2016818;71;30887;-74
2022/07/12 17:39:44;;;;;;;10.28;9.88;;;;;;;28.41;100.00;102004.59;1997303;71;31412;-76
2022/07/12 17:45:30;;;;;;;10.35;9.80;;;;;;;28.00;100.00;102007.62;2009863;71;31538;-74
2022/07/12 17:51:14;;;;;;;10.90;10.38;;;;;;;28.19;100.00;102006.00;2011984;71;31322;-74
2022/07/12 17:56:59;;;;;;;10.35;9.95;;;;;;;28.19;100.00;102016.84;2004228;70;31364;-74
2022/07/12 18:02:44;;;;;;;10.48;9.98;;;;;;;28.35;100.00;102017.56;2009793;71;30968;-72
2022/07/12 18:08:31;;;;;;;10.20;9.70;;;;;;;28.19;100.00;102011.12;1995508;71;30806;-73
2022/07/12 18:20:19;;;;;;;10.28;9.78;;;;;;;28.03;100.00;102009.73;2000521;71;31350;-71
2022/07/12 18:26:05;;;;;;;11.05;10.25;;;;;;;28.16;100.00;102004.71;2015338;71;31469;-70
2022/07/12 18:31:49;;;;;;;10.43;9.78;;;;;;;28.01;100.00;102009.29;1995441;71;30886;-72
2022/07/12 18:37:35;;;;;;;10.13;9.63;;;;;;;27.86;100.00;102006.48;2000867;71;31765;-72
2022/07/12 18:43:21;;;;;;;10.60;9.70;;;;;;;27.93;100.00;102002.38;2003071;71;30988;-72
2022/07/12 18:49:08;;;;;;;10.20;9.70;;;;;;;27.81;100.00;102011.89;1900834;75;32160;-73
2022/07/12 18:54:52;;;;;;;10.32;9.83;;;;;;;27.61;100.00;102017.38;2013613;71;30941;-72
2022/07/12 19:00:37;;;;;;;10.48;9.83;;;;;;;27.72;100.00;102014.77;2013825;71;30867;-72
2022/07/12 19:06:22;;;;;;;10.45;9.80;;;;;;;27.83;100.00;102021.53;2002626;71;30990;-74
2022/07/12 19:12:07;;;;;;;9.90;9.50;;;;;;;28.01;100.00;102024.17;2004552;71;30819;-72
2022/07/12 19:17:55;;;;;;;10.48;10.08;;;;;;;27.91;100.00;102027.62;2002583;70;30869;-73
2022/07/12 19:23:39;;;;;;;10.15;9.70;;;;;;;27.81;100.00;102032.52;2018813;71;31967;-72
2022/07/12 19:29:24;;;;;;;10.48;9.88;;;;;;;27.75;100.00;102043.99;2012303;71;30846;-72
2022/07/12 19:35:11;;;;;;;10.13;9.65;;;;;;;27.77;100.00;102041.61;2017077;71;32474;-72
2022/07/12 19:40:55;;;;;;;10.18;9.68;;;;;;;27.85;100.00;102046.27;2001067;70;30895;-72
2022/07/12 19:46:39;;;;;;;10.53;9.88;;;;;;;27.83;100.00;102052.34;2011425;71;31007;-73
2022/07/12 19:52:24;;;;;;;11.65;11.00;;;;;;;27.72;100.00;102057.00;2012163;71;30787;-73
2022/07/12 19:58:08;;;;;;;12.18;11.57;;;;;;;27.68;100.00;102056.09;2009885;71;30879;-72
2022/07/12 20:03:53;;;;;;;11.88;11.22;;;;;;;27.76;100.00;102059.94;2017010;71;30963;-73
2022/07/12 20:09:38;;;;;;;11.70;10.90;;;;;;;27.49;100.00;102069.72;2015397;71;31641;-72
2022/07/12 20:15:24;;;;;;;11.30;10.63;;;;;;;27.61;100.00;102081.01;2016853;71;30994;-67
2022/07/12 20:21:09;;;;;;;11.20;10.63;;;;;;;27.69;100.00;102085.45;2004816;71;30821;-70
2022/07/12 20:26:54;;;;;;;11.78;10.80;;;;;;;27.61;100.00;102093.86;2016716;71;31179;-70
2022/07/12 20:38:42;;;;;;;10.40;9.83;;;;;;;27.47;100.00;102095.53;2004706;71;31883;-70
2022/07/12 20:44:27;;;;;;;10.23;9.63;;;;;;;27.16;100.00;102102.08;2015358;71;31467;-67
2022/07/12 20:50:12;;;;;;;10.50;9.93;;;;;;;26.92;100.00;102095.93;2018551;71;30946;-70
2022/07/12 20:55:57;;;;;;;10.98;10.38;;;;;;;26.61;100.00;102095.25;2005753;71;30887;-68
2022/07/12 21:01:42;;;;;;;11.15;10.60;;;;;;;26.44;100.00;102090.50;2009821;71;31446;-68
2022/07/12 21:07:28;;;;;;;11.15;10.48;;;;;;;26.32;100.00;102098.48;2006366;71;30802;-69
2022/07/12 21:13:12;;;;;;;11.03;10.43;;;;;;;26.21;100.00;102095.33;2011558;71;30983;-68
2022/07/12 21:18:57;;;;;;;10.60;10.20;;;;;;;26.30;100.00;102096.60;2004252;71;30880;-68
2022/07/12 21:24:41;;;;;;;11.28;10.58;;;;;;;26.07;100.00;102096.28;2013448;70;30877;-69
2022/07/12 21:30:26;;;;;;;11.78;11.10;;;;;;;25.95;100.00;102094.91;2018990;71;31525;-70
2022/07/12 21:36:12;;;;;;;11.30;10.80;;;;;;;25.89;100.00;102092.05;2002599;71;31569;-69
2022/07/12 21:41:56;;;;;;;10.98;10.40;;;;;;;25.82;100.00;102088.41;2000966;71;31322;-71
2022/07/12 21:47:41;;;;;;;14.30;13.25;;;;;;;25.58;100.00;102084.19;1998924;71;30879;-70
2022/07/12 21:53:26;;;;;;;13.58;12.45;;;;;;;25.44;100.00;102080.01;1999219;71;31299;-70
2022/07/12 21:59:13;;;;;;;11.03;10.28;;;;;;;25.36;100.00;102087.48;2004379;71;30888;-70
2022/07/12 22:04:57;;;;;;;10.45;9.95;;;;;;;25.32;100.00;102087.37;2004364;71;31372;-69
2022/07/12 22:10:42;;;;;;;10.28;9.80;;;;;;;25.27;100.00;102085.34;2018836;71;30924;-70
2022/07/12 22:16:27;;;;;;;10.50;10.00;;;;;;;25.18;100.00;102084.63;2013305;71;30860;-70
2022/07/12 22:22:11;;;;;;;15.23;13.70;;;;;;;25.26;100.00;102075.15;2010287;71;31414;-70
2022/07/12 22:27:55;;;;;;;13.93;12.90;;;;;;;25.13;100.00;102081.43;2010283;71;30898;-70
2022/07/12 22:33:41;;;;;;;10.90;10.30;;;;;;;24.92;100.00;102084.37;2013397;71;31374;-70
2022/07/12 22:39:26;;;;;;;10.00;9.50;;;;;;;24.89;100.00;102099.89;2017194;71;30940;-70
2022/07/12 22:45:13;;;;;;;10.23;9.78;;;;;;;24.86;100.00;102094.88;1998909;71;30889;-69
2022/07/12 22:56:59;;;;;;;11.93;11.40;;;;;;;24.24;100.00;102096.44;2011831;71;31036;-70
2022/07/12 23:02:44;;;;;;;11.85;11.35;;;;;;;24.05;100.00;102093.46;2017139;71;31044;-70
2022/07/12 23:08:29;;;;;;;11.57;11.08;;;;;;;24.18;100.00;102090.13;2017295;71;31095;-69
2022/07/12 23:14:13;;;;;;;19.12;17.77;;;;;;;24.16;100.00;102095.34;1999297;71;31033;-70
2022/07/12 23:19:57;;;;;;;13.13;12.47;;;;;;;23.98;100.00;102085.27;2011625;71;31508;-70
2022/07/12 23:25:41;;;;;;;13.70;13.00;;;;;;;23.63;100.00;102088.11;1995489;71;30826;-70
2022/07/12 23:31:26;;;;;;;14.65;13.95;;;;;;;23.41;100.00;102087.20;2013987;71;31005;-70
2022/07/12 23:37:10;;;;;;;14.98;14.20;;;;;;;23.22;100.00;102089.66;2011612;71;31541;-69
2022/07/12 23:42:55;;;;;;;17.02;16.23;;;;;;;23.23;100.00;102076.32;2001310;71;31422;-69
2022/07/12 23:48:39;;;;;;;14.80;14.20;;;;;;;23.31;100.00;102076.86;2017012;71;30921;-71
2022/07/12 23:54:27;;;;;;;18.60;17.67;;;;;;;23.19;100.00;102069.67;2007741;71;32957;-70
